Time;durP1;ratioP1;P1;durP2;ratioP2;P2;SDS_P1;SDS_P2;PMS_P1;PMS_P2;Temp;Humidity;BMP_temperature;BMP_pressure;BME280_temperature;BME280_humidity;BME280_pressure;Samples;Min_cycle;Max_cycle;Signal;HPM_P1;HPM_P2
2021/01/01 00:05:48;;;;;;;26.50;20.93;;;;;;;18.47;34.74;99907.22;31220721;28;20049;-62
2021/01/01 00:20:49;;;;;;;25.40;21.40;;;;;;;18.51;34.83;99905.09;31204740;28;20888;-61
2021/01/01 00:35:50;;;;;;;30.17;24.57;;;;;;;18.69;34.41;99911.22;31208041;28;20291;-62
2021/01/01 00:50:51;;;;;;;33.07;27.63;;;;;;;18.70;34.69;99920.78;31225353;28;20762;-62
2021/01/01 01:05:52;;;;;;;24.37;18.37;;;;;;;18.74;36.08;99906.34;31228806;28;20304;-60
2021/01/01 01:20:53;;;;;;;30.23;25.00;;;;;;;18.33;35.88;99908.53;31237907;28;20666;-61
2021/01/01 01:35:54;;;;;;;34.13;26.10;;;;;;;18.34;36.14;99915.44;31219847;28;20288;-62
2021/01/01 01:50:55;;;;;;;29.40;24.73;;;;;;;18.35;36.87;99911.03;31228280;28;20653;-63
2021/01/01 02:05:56;;;;;;;31.27;25.63;;;;;;;18.40;36.94;99919.28;31222031;28;20303;-60
2021/01/01 02:20:57;;;;;;;33.08;27.20;;;;;;;18.37;36.94;99927.47;31216063;28;20365;-61
2021/01/01 02:35:58;;;;;;;33.27;26.80;;;;;;;18.35;36.94;99924.19;31207795;28;20056;-62
2021/01/01 02:50:59;;;;;;;33.77;26.37;;;;;;;18.33;36.82;99926.94;31186855;28;20367;-61
2021/01/01 03:06:00;;;;;;;31.73;24.67;;;;;;;18.29;36.71;99927.38;31260448;28;20300;-62
2021/01/01 03:21:01;;;;;;;29.07;24.47;;;;;;;18.21;36.66;99922.84;31247691;28;20383;-61
2021/01/01 03:36:03;;;;;;;29.75;23.50;;;;;;;18.04;37.12;99919.19;31199461;28;20303;-61
2021/01/01 03:51:04;;;;;;;27.67;23.10;;;;;;;17.99;37.12;99906.47;31199194;28;20100;-60
2021/01/01 04:06:05;;;;;;;28.27;22.92;;;;;;;17.92;37.27;99905.38;31216742;28;20434;-62
2021/01/01 04:21:07;;;;;;;28.17;22.57;;;;;;;17.89;37.25;99907.47;31247114;28;20490;-62
2021/01/01 04:36:08;;;;;;;29.45;22.08;;;;;;;17.77;37.40;99909.41;31235925;28;20296;-62
2021/01/01 04:51:09;;;;;;;26.42;20.75;;;;;;;17.70;38.03;99914.41;31231752;28;20213;-62
2021/01/01 05:06:10;;;;;;;23.43;19.70;;;;;;;17.63;37.77;99931.72;31233549;28;20042;-61
2021/01/01 05:21:11;;;;;;;23.60;19.53;;;;;;;17.55;37.84;99928.97;31239507;28;20300;-62
2021/01/01 05:36:12;;;;;;;22.60;19.47;;;;;;;17.49;38.07;99942.66;31218536;28;20292;-62
2021/01/01 05:51:13;;;;;;;23.17;18.25;;;;;;;17.46;37.90;99942.97;31213446;28;20292;-61
2021/01/01 06:06:14;;;;;;;22.70;18.87;;;;;;;17.49;37.67;99964.50;31229512;28;20044;-61
2021/01/01 06:21:23;;;;;;;21.50;18.23;;;;;;;17.39;38.11;99976.84;31237109;28;20288;-62
2021/01/01 06:36:37;;;;;;;20.27;17.35;;;;;;;17.34;38.17;99982.50;31234390;28;20357;-59
2021/01/01 06:51:38;;;;;;;22.08;17.33;;;;;;;17.28;38.18;99995.34;31250300;28;20063;-61
2021/01/01 07:06:40;;;;;;;21.10;17.33;;;;;;;17.23;38.36;100011.53;31248405;28;20050;-60
2021/01/01 07:21:41;;;;;;;19.13;16.42;;;;;;;17.23;38.17;100021.22;31213561;28;20040;-60
2021/01/01 07:36:42;;;;;;;19.77;16.52;;;;;;;17.20;38.05;100030.16;31220235;28;20049;-60
2021/01/01 07:51:43;;;;;;;18.48;15.27;;;;;;;17.20;38.12;100037.22;31235431;28;20453;-61
2021/01/01 08:06:44;;;;;;;20.30;15.38;;;;;;;17.16;38.08;100036.69;31215060;28;20041;-60
2021/01/01 08:21:45;;;;;;;16.45;14.65;;;;;;;17.10;38.18;100051.16;31232284;28;20045;-60
2021/01/01 08:36:46;;;;;;;15.73;13.93;;;;;;;17.10;38.25;100060.84;31216685;28;20037;-62
2021/01/01 08:51:48;;;;;;;16.38;13.13;;;;;;;17.12;38.16;100074.66;31237301;28;20049;-61
2021/01/01 09:06:53;;;;;;;16.35;13.18;;;;;;;17.11;38.22;100094.00;31243080;28;20033;-62
2021/01/01 09:21:54;;;;;;;15.90;13.02;;;;;;;17.01;38.47;100103.66;31223533;28;20096;-61
2021/01/01 09:36:55;;;;;;;15.23;12.93;;;;;;;17.11;38.32;100110.59;31198469;28;20429;-61
2021/01/01 09:51:56;;;;;;;14.73;12.02;;;;;;;17.03;38.24;100109.59;31257231;28;20068;-61
2021/01/01 10:06:57;;;;;;;17.20;12.75;;;;;;;17.08;38.28;100110.03;31227479;28;20045;-62
2021/01/01 10:21:58;;;;;;;15.38;11.93;;;;;;;17.06;38.15;100125.09;31210572;28;20041;-62
2021/01/01 10:36:59;;;;;;;15.27;12.27;;;;;;;16.98;38.58;100123.13;31214027;28;20042;-62
2021/01/01 10:52:01;;;;;;;14.40;11.23;;;;;;;16.87;38.96;100120.59;31220299;28;20045;-61
2021/01/01 11:07:03;;;;;;;14.75;10.98;;;;;;;16.91;38.90;100120.19;31225689;28;20091;-61
2021/01/01 12:38:31;;;;;;;19.45;14.50;;;;;;;12.67;40.13;100126.56;31217034;28;20455;-61
2021/01/01 12:53:32;;;;;;;21.20;15.13;;;;;;;10.60;46.03;100139.75;31109761;28;20050;-62
2021/01/01 13:08:33;;;;;;;17.35;12.43;;;;;;;10.05;47.78;100162.75;31115071;28;20034;-60
2021/01/01 13:23:38;;;;;;;16.38;10.77;;;;;;;10.66;50.80;100161.00;31091411;28;21577;-62
2021/01/01 13:38:39;;;;;;;12.00;8.63;;;;;;;13.56;46.40;100176.97;31037632;28;20074;-61
2021/01/01 13:53:40;;;;;;;11.35;7.82;;;;;;;15.14;44.16;100175.72;31044678;28;20041;-60
2021/01/01 14:08:41;;;;;;;17.10;11.43;;;;;;;15.94;43.23;100186.91;31080892;28;20030;-62
2021/01/01 14:23:42;;;;;;;14.77;9.75;;;;;;;16.37;41.05;100199.94;31059959;28;20112;-62
2021/01/01 14:38:44;;;;;;;19.77;8.63;;;;;;;17.01;39.52;100203.41;31059702;28;20029;-62
2021/01/01 14:53:49;;;;;;;12.23;7.38;;;;;;;17.50;38.87;100218.41;31089702;28;20057;-62
2021/01/01 15:08:50;;;;;;;9.13;6.05;;;;;;;17.90;38.17;100232.50;31114442;28;20391;-62
2021/01/01 15:23:51;;;;;;;13.23;8.17;;;;;;;18.18;38.58;100242.22;31084947;28;20036;-63
2021/01/01 15:38:52;;;;;;;9.57;6.10;;;;;;;18.29;38.48;100262.31;31061100;28;20300;-62
2021/01/01 15:53:53;;;;;;;9.67;6.23;;;;;;;18.42;37.24;100268.13;31089687;28;20782;-61
2021/01/01 16:08:54;;;;;;;17.33;13.80;;;;;;;18.05;31.63;100270.59;31091110;28;20293;-61
2021/01/01 16:23:55;;;;;;;12.75;7.15;;;;;;;17.40;38.56;100267.44;31082528;28;21252;-62
2021/01/01 16:38:57;;;;;;;10.87;6.60;;;;;;;18.29;37.07;100266.75;31076796;28;20037;-63
2021/01/01 16:53:59;;;;;;;10.00;6.82;;;;;;;18.65;36.77;100267.84;31080269;28;20301;-62
2021/01/01 17:09:00;;;;;;;9.43;5.85;;;;;;;18.97;36.81;100277.25;31076629;28;20046;-62
2021/01/01 17:24:01;;;;;;;11.43;7.47;;;;;;;19.09;37.20;100291.09;31088612;28;20377;-62
2021/01/01 17:39:03;;;;;;;10.50;5.95;;;;;;;19.27;39.42;100307.00;31081726;28;20652;-62
2021/01/01 17:54:04;;;;;;;12.77;6.32;;;;;;;19.45;39.26;100314.00;31058242;28;20041;-62
2021/01/01 18:09:05;;;;;;;10.45;6.60;;;;;;;19.58;38.97;100318.09;31086287;28;20107;-63
2021/01/01 18:24:07;;;;;;;8.63;6.50;;;;;;;19.67;39.05;100328.59;31070913;28;20037;-62
2021/01/01 18:39:09;;;;;;;11.40;8.55;;;;;;;19.72;36.39;100336.09;31088891;28;20289;-62
2021/01/01 18:54:10;;;;;;;10.55;7.85;;;;;;;19.75;36.35;100348.19;31090375;28;20069;-62
2021/01/01 19:09:11;;;;;;;10.43;7.83;;;;;;;19.85;38.18;100351.59;31080200;28;20435;-64
2021/01/01 19:24:13;;;;;;;11.40;8.00;;;;;;;19.89;37.67;100368.81;31097731;28;20281;-63
2021/01/01 19:39:32;;;;;;;10.85;8.30;;;;;;;19.94;37.06;100387.66;31057866;28;20292;-63
2021/01/01 19:55:02;;;;;;;11.23;9.18;;;;;;;20.00;36.49;100396.81;31103335;28;20046;-63
2021/01/01 20:10:05;;;;;;;12.15;8.57;;;;;;;19.96;36.21;100412.09;31072029;28;20100;-62
2021/01/01 20:25:07;;;;;;;12.88;8.55;;;;;;;19.80;36.20;100435.63;31024967;28;20034;-62
2021/01/01 20:40:09;;;;;;;13.25;9.75;;;;;;;19.58;36.50;100452.56;31042919;28;20042;-62
2021/01/01 21:10:49;;;;;;;19.67;14.02;;;;;;;13.26;40.84;100488.75;31067678;28;20115;-62
2021/01/01 21:26:23;;;;;;;12.73;8.50;;;;;;;15.65;38.93;100494.78;31029758;28;20396;-63
2021/01/01 21:41:59;;;;;;;8.95;6.75;;;;;;;16.80;37.72;100497.41;31090325;28;20022;-62
2021/01/01 21:57:01;;;;;;;11.48;7.82;;;;;;;17.74;36.14;100496.69;31093288;28;20500;-61
2021/01/01 22:12:07;;;;;;;10.93;8.50;;;;;;;18.38;35.26;100507.97;31051761;28;20041;-61
2021/01/01 22:27:08;;;;;;;9.75;8.18;;;;;;;18.77;34.83;100514.22;31075952;28;20389;-60
2021/01/01 22:42:09;;;;;;;11.37;8.43;;;;;;;18.97;34.87;100520.38;31059844;28;20037;-61
2021/01/01 22:57:11;;;;;;;11.30;7.80;;;;;;;17.64;35.53;100543.09;31064163;28;20301;-61
2021/01/01 23:12:12;;;;;;;9.82;7.55;;;;;;;18.45;35.73;100542.50;31062565;28;20296;-63
2021/01/01 23:27:27;;;;;;;10.50;7.80;;;;;;;18.74;36.07;100542.63;31090571;28;20042;-64
2021/01/01 23:42:34;;;;;;;8.85;7.25;;;;;;;18.79;36.23;100533.38;31088389;28;20359;-65
2021/01/01 23:57:35;;;;;;;;;;;;;;;18.82;36.78;100540.16;31102343;28;20046;-64
